KOOA/OOA METAR and TAF weather

Enter ICAO airport designator
Station Type Date Time Source
KOOA METAR 2022/08/16 18:35 UTC NOAA

KOOA 161835Z AUTO 08006KT 3SM SCT044 27/20 A3010 RMK AO2 T02720200


Station Type Date Time Source
KOOA Decoded METAR 2022/08/16 18:35 UTC NOAA

Oskaloosa, Oskaloosa Municipal Airport, IA, United States (KOOA) 41-13-34N 092-29-37W
Aug 16, 2022 - 02:35 PM EDT / 2022.08.16 1835 UTC
Wind: from the E (080 degrees) at 7 MPH (6 KT):0
Visibility: 3 mile(s):0
Sky conditions: partly cloudy
Temperature: 81.0 F (27.2 C)
Dew Point: 68.0 F (20.0 C)
Relative Humidity: 64%
Pressure (altimeter): 30.1 in. Hg (1019 hPa)
ob: KOOA 161835Z AUTO 08006KT 3SM SCT044 27/20 A3010 RMK AO2 T02720200
cycle: 18

Station Type Date Time Source
KOOA TAF UTC NOAA

Error!

Example: see airport list